To NAV CANADA Home Page Login to a new session Search on AWWS site Feedback and Comments Disclaimer Vers la page française équivalente Tips FAQ What's new on the site To the Forecasts and Observations / NOTAM section To "File a Flight Plan" website Publications and other links Update of the User's profile FIC Telephone Numbers My Weather Data Folder Route Weather Data Regional Weather Data Local Weather Data To the Forecasts and Observations / NOTAM section
Request Generated 10/18/2017 at 03:54:27 UTC . Weather information available at that time is displayed.

METAR/TAF

OTTAWA/MACDONALD-CARTIER INTL/ON    

METAR CYOW 180300Z 23012G18KT 15SM FEW160 13/09 A3002 RMK AC2 SLP170=
METAR CYOW 180200Z 23012G20KT 14SM BKN170 14/08 A3002 RMK AC7 SLP171=
METAR CYOW 180100Z 21012G20KT 15SM SCT070 14/08 A3001 RMK AC4 SLP167=

TAF CYOW 180238Z 1803/1824 23012KT P6SM BKN180
FM180900 VRB03KT P6SM FEW120 PROB30 1809/1814 1SM BR
FM181400 20006KT P6SM SKC
BECMG 1818/1820 20010G20KT
BECMG 1822/1824 20008KT
RMK NXT FCST BY 180600Z=
Your time UTC time
Weather data provided by Environment Canada and NAV CANADA